sensor_id;sensor_type;location;lat;lon;timestamp;P1;durP1;ratioP1;P2;durP2;ratioP2
83690;SDS011;73671;43.220;0.064;2023-12-04T00:01:09;9.38;;;4.72;;
83690;SDS011;73671;43.220;0.064;2023-12-04T00:03:35;11.95;;;5.60;;
83690;SDS011;73671;43.220;0.064;2023-12-04T00:06:00;9.40;;;4.40;;
83690;SDS011;73671;43.220;0.064;2023-12-04T00:08:25;11.75;;;5.88;;
83690;SDS011;73671;43.220;0.064;2023-12-04T00:10:51;10.57;;;4.78;;
83690;SDS011;73671;43.220;0.064;2023-12-04T00:13:17;7.68;;;4.65;;
83690;SDS011;73671;43.220;0.064;2023-12-04T00:15:42;10.52;;;5.15;;
83690;SDS011;73671;43.220;0.064;2023-12-04T00:18:09;7.70;;;4.85;;
83690;SDS011;73671;43.220;0.064;2023-12-04T00:20:34;6.55;;;4.57;;
83690;SDS011;73671;43.220;0.064;2023-12-04T00:22:59;7.53;;;4.32;;
83690;SDS011;73671;43.220;0.064;2023-12-04T00:25:25;6.55;;;4.30;;
83690;SDS011;73671;43.220;0.064;2023-12-04T00:27:50;6.57;;;4.07;;
83690;SDS011;73671;43.220;0.064;2023-12-04T00:30:16;4.70;;;3.83;;
83690;SDS011;73671;43.220;0.064;2023-12-04T00:32:41;6.28;;;3.97;;
83690;SDS011;73671;43.220;0.064;2023-12-04T00:35:06;6.43;;;4.43;;
83690;SDS011;73671;43.220;0.064;2023-12-04T00:37:32;12.82;;;6.22;;
83690;SDS011;73671;43.220;0.064;2023-12-04T00:40:02;11.20;;;6.15;;
83690;SDS011;73671;43.220;0.064;2023-12-04T00:42:28;11.98;;;6.97;;
83690;SDS011;73671;43.220;0.064;2023-12-04T00:44:53;11.25;;;7.18;;
83690;SDS011;73671;43.220;0.064;2023-12-04T00:47:18;17.40;;;8.88;;
83690;SDS011;73671;43.220;0.064;2023-12-04T00:49:44;16.38;;;9.18;;
83690;SDS011;73671;43.220;0.064;2023-12-04T00:52:09;19.60;;;9.55;;
83690;SDS011;73671;43.220;0.064;2023-12-04T00:54:34;15.52;;;8.95;;
83690;SDS011;73671;43.220;0.064;2023-12-04T00:57:00;17.08;;;9.70;;
83690;SDS011;73671;43.220;0.064;2023-12-04T00:59:25;23.42;;;11.15;;
83690;SDS011;73671;43.220;0.064;2023-12-04T01:01:51;25.63;;;11.93;;
83690;SDS011;73671;43.220;0.064;2023-12-04T01:04:16;26.27;;;12.13;;
83690;SDS011;73671;43.220;0.064;2023-12-04T01:06:41;24.90;;;12.48;;
83690;SDS011;73671;43.220;0.064;2023-12-04T01:09:07;25.92;;;12.60;;
83690;SDS011;73671;43.220;0.064;2023-12-04T01:11:32;21.00;;;11.82;;
83690;SDS011;73671;43.220;0.064;2023-12-04T01:13:57;23.13;;;11.88;;
83690;SDS011;73671;43.220;0.064;2023-12-04T01:16:23;19.73;;;10.93;;
83690;SDS011;73671;43.220;0.064;2023-12-04T01:18:48;20.58;;;10.90;;
83690;SDS011;73671;43.220;0.064;2023-12-04T01:21:13;15.02;;;9.32;;
83690;SDS011;73671;43.220;0.064;2023-12-04T01:23:39;13.68;;;9.18;;
83690;SDS011;73671;43.220;0.064;2023-12-04T01:26:04;17.02;;;8.70;;
83690;SDS011;73671;43.220;0.064;2023-12-04T01:28:30;13.35;;;8.77;;
83690;SDS011;73671;43.220;0.064;2023-12-04T01:30:55;15.38;;;8.48;;
83690;SDS011;73671;43.220;0.064;2023-12-04T01:33:21;13.25;;;7.88;;
83690;SDS011;73671;43.220;0.064;2023-12-04T01:35:46;12.40;;;7.78;;
83690;SDS011;73671;43.220;0.064;2023-12-04T01:38:12;10.75;;;7.50;;
83690;SDS011;73671;43.220;0.064;2023-12-04T01:40:37;11.20;;;7.03;;
83690;SDS011;73671;43.220;0.064;2023-12-04T01:43:02;9.45;;;6.38;;
83690;SDS011;73671;43.220;0.064;2023-12-04T01:45:28;8.93;;;5.28;;
83690;SDS011;73671;43.220;0.064;2023-12-04T01:47:54;9.77;;;6.53;;
83690;SDS011;73671;43.220;0.064;2023-12-04T01:50:19;9.73;;;6.40;;
83690;SDS011;73671;43.220;0.064;2023-12-04T01:52:45;8.45;;;5.95;;
83690;SDS011;73671;43.220;0.064;2023-12-04T01:55:12;9.18;;;5.82;;
83690;SDS011;73671;43.220;0.064;2023-12-04T01:57:38;9.40;;;5.65;;
83690;SDS011;73671;43.220;0.064;2023-12-04T02:00:03;8.15;;;5.70;;
83690;SDS011;73671;43.220;0.064;2023-12-04T02:02:36;10.25;;;6.15;;
83690;SDS011;73671;43.220;0.064;2023-12-04T02:05:02;9.60;;;5.72;;
83690;SDS011;73671;43.220;0.064;2023-12-04T02:07:29;8.43;;;6.43;;
83690;SDS011;73671;43.220;0.064;2023-12-04T02:09:56;13.18;;;6.43;;
83690;SDS011;73671;43.220;0.064;2023-12-04T02:12:21;9.43;;;5.93;;
83690;SDS011;73671;43.220;0.064;2023-12-04T02:14:47;11.60;;;6.05;;
83690;SDS011;73671;43.220;0.064;2023-12-04T02:17:12;6.75;;;5.07;;
83690;SDS011;73671;43.220;0.064;2023-12-04T02:19:39;9.23;;;6.15;;
83690;SDS011;73671;43.220;0.064;2023-12-04T02:22:04;10.55;;;6.43;;
83690;SDS011;73671;43.220;0.064;2023-12-04T02:24:30;12.43;;;5.95;;
83690;SDS011;73671;43.220;0.064;2023-12-04T02:26:59;13.45;;;5.95;;
83690;SDS011;73671;43.220;0.064;2023-12-04T02:29:36;8.43;;;6.15;;
83690;SDS011;73671;43.220;0.064;2023-12-04T02:32:04;10.43;;;5.70;;
83690;SDS011;73671;43.220;0.064;2023-12-04T02:34:33;8.27;;;5.47;;
83690;SDS011;73671;43.220;0.064;2023-12-04T02:36:59;8.48;;;4.88;;
83690;SDS011;73671;43.220;0.064;2023-12-04T02:39:26;6.13;;;4.97;;
83690;SDS011;73671;43.220;0.064;2023-12-04T02:41:52;7.18;;;4.40;;
83690;SDS011;73671;43.220;0.064;2023-12-04T02:44:17;7.35;;;4.53;;
83690;SDS011;73671;43.220;0.064;2023-12-04T02:46:43;5.13;;;3.95;;
83690;SDS011;73671;43.220;0.064;2023-12-04T02:49:08;4.70;;;3.47;;
83690;SDS011;73671;43.220;0.064;2023-12-04T02:51:34;6.35;;;3.30;;
83690;SDS011;73671;43.220;0.064;2023-12-04T02:53:59;2.85;;;2.55;;
83690;SDS011;73671;43.220;0.064;2023-12-04T02:56:24;5.32;;;2.90;;
83690;SDS011;73671;43.220;0.064;2023-12-04T02:58:50;3.92;;;2.78;;
83690;SDS011;73671;43.220;0.064;2023-12-04T03:01:15;3.67;;;2.67;;
83690;SDS011;73671;43.220;0.064;2023-12-04T03:03:40;4.40;;;2.85;;
83690;SDS011;73671;43.220;0.064;2023-12-04T03:06:06;2.90;;;2.60;;
83690;SDS011;73671;43.220;0.064;2023-12-04T03:08:31;3.15;;;2.65;;
83690;SDS011;73671;43.220;0.064;2023-12-04T03:10:57;3.42;;;2.45;;
83690;SDS011;73671;43.220;0.064;2023-12-04T03:13:22;2.55;;;2.00;;
83690;SDS011;73671;43.220;0.064;2023-12-04T03:15:47;1.70;;;1.60;;
83690;SDS011;73671;43.220;0.064;2023-12-04T03:18:13;1.70;;;1.60;;
83690;SDS011;73671;43.220;0.064;2023-12-04T03:20:38;1.80;;;1.70;;
83690;SDS011;73671;43.220;0.064;2023-12-04T03:23:04;1.60;;;1.50;;
83690;SDS011;73671;43.220;0.064;2023-12-04T03:25:29;3.50;;;1.30;;
83690;SDS011;73671;43.220;0.064;2023-12-04T03:27:54;1.60;;;1.48;;
83690;SDS011;73671;43.220;0.064;2023-12-04T03:30:20;1.27;;;1.27;;
83690;SDS011;73671;43.220;0.064;2023-12-04T03:32:45;1.40;;;1.30;;
83690;SDS011;73671;43.220;0.064;2023-12-04T03:35:10;1.80;;;1.40;;
83690;SDS011;73671;43.220;0.064;2023-12-04T03:37:36;1.40;;;1.30;;
83690;SDS011;73671;43.220;0.064;2023-12-04T03:40:02;2.60;;;1.30;;
83690;SDS011;73671;43.220;0.064;2023-12-04T03:42:27;1.48;;;1.38;;
83690;SDS011;73671;43.220;0.064;2023-12-04T03:44:53;1.20;;;1.10;;
83690;SDS011;73671;43.220;0.064;2023-12-04T03:47:18;2.20;;;1.20;;
83690;SDS011;73671;43.220;0.064;2023-12-04T03:49:43;1.27;;;1.23;;
83690;SDS011;73671;43.220;0.064;2023-12-04T03:52:09;1.23;;;1.20;;
83690;SDS011;73671;43.220;0.064;2023-12-04T03:54:34;1.35;;;1.35;;
83690;SDS011;73671;43.220;0.064;2023-12-04T03:56:59;1.65;;;1.30;;
83690;SDS011;73671;43.220;0.064;2023-12-04T03:59:25;1.20;;;1.20;;
83690;SDS011;73671;43.220;0.064;2023-12-04T04:01:50;1.40;;;1.30;;
83690;SDS011;73671;43.220;0.064;2023-12-04T04:04:15;1.60;;;1.40;;
83690;SDS011;73671;43.220;0.064;2023-12-04T04:06:41;1.77;;;1.67;;
83690;SDS011;73671;43.220;0.064;2023-12-04T04:09:06;1.30;;;1.30;;
83690;SDS011;73671;43.220;0.064;2023-12-04T04:11:31;1.40;;;1.30;;
83690;SDS011;73671;43.220;0.064;2023-12-04T04:13:57;1.85;;;1.30;;
83690;SDS011;73671;43.220;0.064;2023-12-04T04:16:22;1.33;;;1.30;;
83690;SDS011;73671;43.220;0.064;2023-12-04T04:18:48;1.40;;;1.30;;
83690;SDS011;73671;43.220;0.064;2023-12-04T04:21:13;1.20;;;1.10;;
83690;SDS011;73671;43.220;0.064;2023-12-04T04:23:39;1.40;;;1.30;;
83690;SDS011;73671;43.220;0.064;2023-12-04T04:26:04;1.30;;;1.20;;
83690;SDS011;73671;43.220;0.064;2023-12-04T04:28:30;1.40;;;1.30;;
83690;SDS011;73671;43.220;0.064;2023-12-04T04:30:55;1.15;;;1.15;;
83690;SDS011;73671;43.220;0.064;2023-12-04T04:33:20;1.27;;;1.20;;
83690;SDS011;73671;43.220;0.064;2023-12-04T04:35:46;1.40;;;1.30;;
83690;SDS011;73671;43.220;0.064;2023-12-04T04:38:11;1.30;;;1.20;;
83690;SDS011;73671;43.220;0.064;2023-12-04T04:40:36;1.55;;;1.45;;
83690;SDS011;73671;43.220;0.064;2023-12-04T04:43:06;1.58;;;1.20;;
83690;SDS011;73671;43.220;0.064;2023-12-04T04:45:32;1.45;;;1.27;;
83690;SDS011;73671;43.220;0.064;2023-12-04T04:47:57;1.33;;;1.23;;
83690;SDS011;73671;43.220;0.064;2023-12-04T04:50:23;1.40;;;1.30;;
83690;SDS011;73671;43.220;0.064;2023-12-04T04:52:48;1.30;;;1.20;;
83690;SDS011;73671;43.220;0.064;2023-12-04T04:55:13;1.40;;;1.30;;
83690;SDS011;73671;43.220;0.064;2023-12-04T04:57:39;1.50;;;1.40;;
83690;SDS011;73671;43.220;0.064;2023-12-04T05:00:04;1.65;;;1.30;;
83690;SDS011;73671;43.220;0.064;2023-12-04T05:02:30;2.78;;;1.30;;
83690;SDS011;73671;43.220;0.064;2023-12-04T05:04:56;1.33;;;1.23;;
83690;SDS011;73671;43.220;0.064;2023-12-04T05:07:21;1.60;;;1.50;;
83690;SDS011;73671;43.220;0.064;2023-12-04T05:09:47;4.63;;;3.20;;
83690;SDS011;73671;43.220;0.064;2023-12-04T05:12:12;2.30;;;2.10;;
83690;SDS011;73671;43.220;0.064;2023-12-04T05:14:38;3.35;;;2.50;;
83690;SDS011;73671;43.220;0.064;2023-12-04T05:17:03;1.50;;;1.40;;
83690;SDS011;73671;43.220;0.064;2023-12-04T05:19:29;1.55;;;1.45;;
83690;SDS011;73671;43.220;0.064;2023-12-04T05:21:54;1.52;;;1.42;;
83690;SDS011;73671;43.220;0.064;2023-12-04T05:24:19;1.30;;;1.20;;
83690;SDS011;73671;43.220;0.064;2023-12-04T05:26:45;1.83;;;1.38;;
83690;SDS011;73671;43.220;0.064;2023-12-04T05:29:10;1.55;;;1.45;;
83690;SDS011;73671;43.220;0.064;2023-12-04T05:31:35;1.30;;;1.20;;
83690;SDS011;73671;43.220;0.064;2023-12-04T05:34:01;1.40;;;1.30;;
83690;SDS011;73671;43.220;0.064;2023-12-04T05:36:27;3.53;;;1.70;;
83690;SDS011;73671;43.220;0.064;2023-12-04T05:38:52;2.42;;;1.30;;
83690;SDS011;73671;43.220;0.064;2023-12-04T05:41:18;1.60;;;1.50;;
83690;SDS011;73671;43.220;0.064;2023-12-04T05:43:44;1.88;;;1.67;;
83690;SDS011;73671;43.220;0.064;2023-12-04T05:46:09;1.80;;;1.70;;
83690;SDS011;73671;43.220;0.064;2023-12-04T05:48:34;2.20;;;2.00;;
83690;SDS011;73671;43.220;0.064;2023-12-04T05:51:00;11.48;;;4.60;;
83690;SDS011;73671;43.220;0.064;2023-12-04T05:53:25;11.90;;;5.80;;
83690;SDS011;73671;43.220;0.064;2023-12-04T05:55:51;7.55;;;4.25;;
83690;SDS011;73671;43.220;0.064;2023-12-04T05:58:16;8.68;;;5.18;;
83690;SDS011;73671;43.220;0.064;2023-12-04T06:00:41;4.60;;;3.05;;
83690;SDS011;73671;43.220;0.064;2023-12-04T06:03:07;3.72;;;2.50;;
83690;SDS011;73671;43.220;0.064;2023-12-04T06:05:32;5.20;;;2.60;;
83690;SDS011;73671;43.220;0.064;2023-12-04T06:07:58;3.90;;;2.70;;
83690;SDS011;73671;43.220;0.064;2023-12-04T06:10:23;2.72;;;2.53;;
83690;SDS011;73671;43.220;0.064;2023-12-04T06:12:48;4.13;;;2.65;;
83690;SDS011;73671;43.220;0.064;2023-12-04T06:15:14;3.60;;;3.00;;
83690;SDS011;73671;43.220;0.064;2023-12-04T06:17:39;4.03;;;3.20;;
83690;SDS011;73671;43.220;0.064;2023-12-04T06:20:05;4.22;;;3.28;;
83690;SDS011;73671;43.220;0.064;2023-12-04T06:22:31;3.45;;;3.15;;
83690;SDS011;73671;43.220;0.064;2023-12-04T06:24:57;4.50;;;3.88;;
83690;SDS011;73671;43.220;0.064;2023-12-04T06:27:23;7.78;;;3.33;;
83690;SDS011;73671;43.220;0.064;2023-12-04T06:29:49;5.43;;;4.15;;
83690;SDS011;73671;43.220;0.064;2023-12-04T06:32:15;5.63;;;4.53;;
83690;SDS011;73671;43.220;0.064;2023-12-04T06:34:41;7.10;;;4.90;;
83690;SDS011;73671;43.220;0.064;2023-12-04T06:37:10;7.85;;;4.60;;
83690;SDS011;73671;43.220;0.064;2023-12-04T06:39:37;5.47;;;4.55;;
83690;SDS011;73671;43.220;0.064;2023-12-04T06:42:04;5.10;;;4.13;;
83690;SDS011;73671;43.220;0.064;2023-12-04T06:44:31;5.63;;;4.05;;
83690;SDS011;73671;43.220;0.064;2023-12-04T06:46:56;4.75;;;4.00;;
83690;SDS011;73671;43.220;0.064;2023-12-04T06:49:25;5.07;;;4.55;;
83690;SDS011;73671;43.220;0.064;2023-12-04T06:51:54;6.30;;;5.07;;
83690;SDS011;73671;43.220;0.064;2023-12-04T06:54:20;6.13;;;4.97;;
83690;SDS011;73671;43.220;0.064;2023-12-04T06:56:45;10.82;;;5.05;;
83690;SDS011;73671;43.220;0.064;2023-12-04T06:59:10;7.18;;;5.75;;
83690;SDS011;73671;43.220;0.064;2023-12-04T07:01:36;6.57;;;5.10;;
83690;SDS011;73671;43.220;0.064;2023-12-04T07:04:01;10.00;;;6.30;;
83690;SDS011;73671;43.220;0.064;2023-12-04T07:06:26;8.38;;;4.95;;
83690;SDS011;73671;43.220;0.064;2023-12-04T07:08:52;7.72;;;5.20;;
83690;SDS011;73671;43.220;0.064;2023-12-04T07:11:17;8.95;;;5.70;;
83690;SDS011;73671;43.220;0.064;2023-12-04T07:13:43;6.18;;;4.60;;
83690;SDS011;73671;43.220;0.064;2023-12-04T07:16:08;7.80;;;5.13;;
83690;SDS011;73671;43.220;0.064;2023-12-04T07:18:34;12.98;;;7.45;;
83690;SDS011;73671;43.220;0.064;2023-12-04T07:21:00;12.98;;;7.97;;
83690;SDS011;73671;43.220;0.064;2023-12-04T07:23:25;13.82;;;8.05;;
83690;SDS011;73671;43.220;0.064;2023-12-04T07:25:50;16.00;;;9.50;;
83690;SDS011;73671;43.220;0.064;2023-12-04T07:28:17;14.98;;;8.27;;
83690;SDS011;73671;43.220;0.064;2023-12-04T07:30:43;15.05;;;8.70;;
83690;SDS011;73671;43.220;0.064;2023-12-04T07:33:08;13.93;;;8.18;;
83690;SDS011;73671;43.220;0.064;2023-12-04T07:35:33;12.98;;;7.85;;
83690;SDS011;73671;43.220;0.064;2023-12-04T07:37:59;13.25;;;8.63;;
83690;SDS011;73671;43.220;0.064;2023-12-04T07:40:24;13.75;;;8.18;;
83690;SDS011;73671;43.220;0.064;2023-12-04T07:42:50;11.02;;;7.68;;
83690;SDS011;73671;43.220;0.064;2023-12-04T07:45:16;13.57;;;7.47;;
83690;SDS011;73671;43.220;0.064;2023-12-04T07:47:41;11.05;;;7.80;;
83690;SDS011;73671;43.220;0.064;2023-12-04T07:50:07;9.32;;;7.20;;
83690;SDS011;73671;43.220;0.064;2023-12-04T07:52:32;11.93;;;7.78;;
83690;SDS011;73671;43.220;0.064;2023-12-04T07:54:57;9.57;;;6.82;;
83690;SDS011;73671;43.220;0.064;2023-12-04T07:57:23;11.27;;;7.25;;
83690;SDS011;73671;43.220;0.064;2023-12-04T07:59:48;12.63;;;7.25;;
83690;SDS011;73671;43.220;0.064;2023-12-04T08:02:14;11.52;;;8.18;;
83690;SDS011;73671;43.220;0.064;2023-12-04T08:04:39;12.38;;;7.00;;
83690;SDS011;73671;43.220;0.064;2023-12-04T08:07:04;12.15;;;7.03;;
83690;SDS011;73671;43.220;0.064;2023-12-04T08:09:30;10.68;;;6.53;;
83690;SDS011;73671;43.220;0.064;2023-12-04T08:11:55;14.48;;;7.65;;
83690;SDS011;73671;43.220;0.064;2023-12-04T08:14:21;11.02;;;7.47;;
83690;SDS011;73671;43.220;0.064;2023-12-04T08:16:47;10.45;;;7.20;;
83690;SDS011;73671;43.220;0.064;2023-12-04T08:19:13;9.88;;;6.95;;
83690;SDS011;73671;43.220;0.064;2023-12-04T08:21:38;9.98;;;6.63;;
83690;SDS011;73671;43.220;0.064;2023-12-04T08:24:03;10.40;;;6.88;;
83690;SDS011;73671;43.220;0.064;2023-12-04T08:26:29;9.82;;;6.30;;
83690;SDS011;73671;43.220;0.064;2023-12-04T08:28:54;10.27;;;6.97;;
83690;SDS011;73671;43.220;0.064;2023-12-04T08:31:21;11.02;;;6.85;;
83690;SDS011;73671;43.220;0.064;2023-12-04T08:33:47;9.73;;;6.78;;
83690;SDS011;73671;43.220;0.064;2023-12-04T08:36:12;11.82;;;6.20;;
83690;SDS011;73671;43.220;0.064;2023-12-04T08:38:37;9.30;;;6.10;;
83690;SDS011;73671;43.220;0.064;2023-12-04T08:41:03;7.82;;;6.35;;
83690;SDS011;73671;43.220;0.064;2023-12-04T08:43:29;9.27;;;6.05;;
83690;SDS011;73671;43.220;0.064;2023-12-04T08:45:55;9.52;;;6.40;;
83690;SDS011;73671;43.220;0.064;2023-12-04T08:48:20;9.20;;;6.40;;
83690;SDS011;73671;43.220;0.064;2023-12-04T08:50:46;9.38;;;6.50;;
83690;SDS011;73671;43.220;0.064;2023-12-04T08:53:12;7.57;;;5.95;;
83690;SDS011;73671;43.220;0.064;2023-12-04T08:55:37;8.88;;;5.47;;
83690;SDS011;73671;43.220;0.064;2023-12-04T08:58:02;8.32;;;5.85;;
83690;SDS011;73671;43.220;0.064;2023-12-04T09:00:28;10.52;;;5.38;;
83690;SDS011;73671;43.220;0.064;2023-12-04T09:02:53;5.70;;;4.60;;
83690;SDS011;73671;43.220;0.064;2023-12-04T09:05:19;6.22;;;4.70;;
83690;SDS011;73671;43.220;0.064;2023-12-04T09:07:44;5.40;;;4.25;;
83690;SDS011;73671;43.220;0.064;2023-12-04T09:10:10;4.85;;;3.80;;
83690;SDS011;73671;43.220;0.064;2023-12-04T09:12:35;4.57;;;4.00;;
83690;SDS011;73671;43.220;0.064;2023-12-04T09:15:03;6.55;;;5.35;;
83690;SDS011;73671;43.220;0.064;2023-12-04T09:17:29;6.82;;;4.72;;
83690;SDS011;73671;43.220;0.064;2023-12-04T09:19:55;7.60;;;4.95;;
83690;SDS011;73671;43.220;0.064;2023-12-04T09:22:20;9.45;;;5.43;;
83690;SDS011;73671;43.220;0.064;2023-12-04T09:24:45;7.88;;;6.10;;
83690;SDS011;73671;43.220;0.064;2023-12-04T09:27:11;9.20;;;6.03;;
83690;SDS011;73671;43.220;0.064;2023-12-04T09:29:36;7.03;;;5.43;;
83690;SDS011;73671;43.220;0.064;2023-12-04T09:32:02;7.10;;;5.47;;
83690;SDS011;73671;43.220;0.064;2023-12-04T09:34:28;8.27;;;5.50;;
83690;SDS011;73671;43.220;0.064;2023-12-04T09:36:53;8.77;;;5.38;;
83690;SDS011;73671;43.220;0.064;2023-12-04T09:39:19;7.55;;;5.35;;
83690;SDS011;73671;43.220;0.064;2023-12-04T09:41:44;8.13;;;4.70;;
83690;SDS011;73671;43.220;0.064;2023-12-04T09:44:11;6.40;;;4.60;;
83690;SDS011;73671;43.220;0.064;2023-12-04T09:46:37;8.23;;;4.93;;
83690;SDS011;73671;43.220;0.064;2023-12-04T09:49:04;8.45;;;5.18;;
83690;SDS011;73671;43.220;0.064;2023-12-04T09:51:30;9.50;;;4.88;;
83690;SDS011;73671;43.220;0.064;2023-12-04T09:53:55;5.63;;;4.22;;
83690;SDS011;73671;43.220;0.064;2023-12-04T09:56:24;4.45;;;3.85;;
83690;SDS011;73671;43.220;0.064;2023-12-04T09:58:52;6.25;;;3.10;;
83690;SDS011;73671;43.220;0.064;2023-12-04T10:01:25;3.85;;;2.60;;
83690;SDS011;73671;43.220;0.064;2023-12-04T10:03:53;3.42;;;2.40;;
83690;SDS011;73671;43.220;0.064;2023-12-04T10:06:22;5.20;;;2.58;;
83690;SDS011;73671;43.220;0.064;2023-12-04T10:08:51;3.45;;;2.60;;
83690;SDS011;73671;43.220;0.064;2023-12-04T10:11:16;2.92;;;2.33;;
83690;SDS011;73671;43.220;0.064;2023-12-04T10:13:42;2.47;;;2.10;;
83690;SDS011;73671;43.220;0.064;2023-12-04T10:16:07;4.85;;;2.15;;
83690;SDS011;73671;43.220;0.064;2023-12-04T10:18:33;2.60;;;1.73;;
83690;SDS011;73671;43.220;0.064;2023-12-04T10:20:59;3.65;;;1.80;;
83690;SDS011;73671;43.220;0.064;2023-12-04T10:23:40;1.23;;;1.13;;
83690;SDS011;73671;43.220;0.064;2023-12-04T10:26:07;1.92;;;1.38;;
83690;SDS011;73671;43.220;0.064;2023-12-04T10:28:34;1.27;;;1.10;;
83690;SDS011;73671;43.220;0.064;2023-12-04T10:31:00;1.20;;;1.10;;
83690;SDS011;73671;43.220;0.064;2023-12-04T10:33:25;1.85;;;1.00;;
83690;SDS011;73671;43.220;0.064;2023-12-04T10:35:52;2.22;;;1.27;;
83690;SDS011;73671;43.220;0.064;2023-12-04T10:38:17;1.35;;;1.25;;
83690;SDS011;73671;43.220;0.064;2023-12-04T10:40:43;3.30;;;1.05;;
83690;SDS011;73671;43.220;0.064;2023-12-04T10:45:37;2.55;;;1.10;;
83690;SDS011;73671;43.220;0.064;2023-12-04T10:48:04;1.25;;;1.02;;
83690;SDS011;73671;43.220;0.064;2023-12-04T10:50:33;2.10;;;1.30;;
83690;SDS011;73671;43.220;0.064;2023-12-04T10:53:03;1.30;;;1.20;;
83690;SDS011;73671;43.220;0.064;2023-12-04T10:55:29;1.17;;;1.00;;
83690;SDS011;73671;43.220;0.064;2023-12-04T10:57:57;1.10;;;1.00;;
83690;SDS011;73671;43.220;0.064;2023-12-04T11:00:26;2.72;;;1.20;;
83690;SDS011;73671;43.220;0.064;2023-12-04T11:02:54;1.42;;;1.27;;
83690;SDS011;73671;43.220;0.064;2023-12-04T11:05:20;5.05;;;1.30;;
83690;SDS011;73671;43.220;0.064;2023-12-04T11:07:53;3.45;;;1.10;;
83690;SDS011;73671;43.220;0.064;2023-12-04T11:10:24;4.22;;;1.10;;
83690;SDS011;73671;43.220;0.064;2023-12-04T11:12:53;1.73;;;1.00;;
83690;SDS011;73671;43.220;0.064;2023-12-04T11:15:47;1.65;;;1.10;;
83690;SDS011;73671;43.220;0.064;2023-12-04T11:18:15;2.17;;;0.93;;
83690;SDS011;73671;43.220;0.064;2023-12-04T11:20:54;8.43;;;3.63;;
83690;SDS011;73671;43.220;0.064;2023-12-04T11:23:23;7.43;;;6.60;;
83690;SDS011;73671;43.220;0.064;2023-12-04T11:25:50;2.97;;;1.58;;
83690;SDS011;73671;43.220;0.064;2023-12-04T11:28:16;2.17;;;1.40;;
83690;SDS011;73671;43.220;0.064;2023-12-04T11:30:42;2.83;;;2.30;;
83690;SDS011;73671;43.220;0.064;2023-12-04T11:33:09;5.07;;;2.47;;
83690;SDS011;73671;43.220;0.064;2023-12-04T11:35:36;5.18;;;3.10;;
83690;SDS011;73671;43.220;0.064;2023-12-04T11:38:04;10.27;;;1.85;;
83690;SDS011;73671;43.220;0.064;2023-12-04T11:40:30;5.32;;;3.53;;
83690;SDS011;73671;43.220;0.064;2023-12-04T11:42:55;8.48;;;5.00;;
83690;SDS011;73671;43.220;0.064;2023-12-04T11:45:21;3.80;;;2.42;;
83690;SDS011;73671;43.220;0.064;2023-12-04T11:47:50;1.50;;;1.10;;
83690;SDS011;73671;43.220;0.064;2023-12-04T11:50:25;1.75;;;1.13;;
83690;SDS011;73671;43.220;0.064;2023-12-04T11:52:51;4.32;;;1.20;;
83690;SDS011;73671;43.220;0.064;2023-12-04T11:55:18;1.65;;;1.23;;
83690;SDS011;73671;43.220;0.064;2023-12-04T11:57:47;1.90;;;1.00;;
83690;SDS011;73671;43.220;0.064;2023-12-04T12:02:51;1.95;;;0.95;;
83690;SDS011;73671;43.220;0.064;2023-12-04T12:05:31;0.85;;;0.82;;
83690;SDS011;73671;43.220;0.064;2023-12-04T12:07:59;2.00;;;1.00;;
83690;SDS011;73671;43.220;0.064;2023-12-04T12:10:25;0.60;;;0.60;;
83690;SDS011;73671;43.220;0.064;2023-12-04T12:12:52;2.30;;;1.00;;
83690;SDS011;73671;43.220;0.064;2023-12-04T12:15:17;1.35;;;0.77;;
83690;SDS011;73671;43.220;0.064;2023-12-04T12:17:43;1.67;;;1.40;;
83690;SDS011;73671;43.220;0.064;2023-12-04T12:20:09;3.05;;;0.88;;
83690;SDS011;73671;43.220;0.064;2023-12-04T12:22:36;1.10;;;0.85;;
83690;SDS011;73671;43.220;0.064;2023-12-04T12:25:06;2.72;;;0.98;;
83690;SDS011;73671;43.220;0.064;2023-12-04T12:27:33;0.73;;;0.70;;
83690;SDS011;73671;43.220;0.064;2023-12-04T12:29:59;2.17;;;0.88;;
83690;SDS011;73671;43.220;0.064;2023-12-04T12:32:24;2.08;;;0.90;;
83690;SDS011;73671;43.220;0.064;2023-12-04T12:34:51;1.05;;;0.95;;
83690;SDS011;73671;43.220;0.064;2023-12-04T12:37:17;0.90;;;0.90;;
83690;SDS011;73671;43.220;0.064;2023-12-04T12:39:42;2.58;;;1.50;;
83690;SDS011;73671;43.220;0.064;2023-12-04T12:42:08;4.22;;;1.63;;
83690;SDS011;73671;43.220;0.064;2023-12-04T12:44:38;2.25;;;1.02;;
83690;SDS011;73671;43.220;0.064;2023-12-04T12:47:05;2.20;;;1.00;;
83690;SDS011;73671;43.220;0.064;2023-12-04T12:49:32;1.48;;;0.90;;
83690;SDS011;73671;43.220;0.064;2023-12-04T12:51:59;2.58;;;0.90;;
83690;SDS011;73671;43.220;0.064;2023-12-04T12:54:25;2.58;;;1.10;;
83690;SDS011;73671;43.220;0.064;2023-12-04T12:56:50;2.45;;;0.80;;
83690;SDS011;73671;43.220;0.064;2023-12-04T12:59:16;1.45;;;0.95;;
83690;SDS011;73671;43.220;0.064;2023-12-04T13:01:43;1.73;;;0.88;;
83690;SDS011;73671;43.220;0.064;2023-12-04T13:04:08;0.90;;;0.90;;
83690;SDS011;73671;43.220;0.064;2023-12-04T13:06:38;0.80;;;0.80;;
83690;SDS011;73671;43.220;0.064;2023-12-04T13:09:04;0.70;;;0.70;;
83690;SDS011;73671;43.220;0.064;2023-12-04T13:11:31;0.93;;;0.88;;
83690;SDS011;73671;43.220;0.064;2023-12-04T13:13:56;0.80;;;0.80;;
83690;SDS011;73671;43.220;0.064;2023-12-04T13:16:22;1.35;;;0.90;;
83690;SDS011;73671;43.220;0.064;2023-12-04T13:18:48;4.07;;;1.00;;
83690;SDS011;73671;43.220;0.064;2023-12-04T13:21:13;1.08;;;0.68;;
83690;SDS011;73671;43.220;0.064;2023-12-04T13:23:38;0.70;;;0.70;;
83690;SDS011;73671;43.220;0.064;2023-12-04T13:26:04;0.70;;;0.70;;
83690;SDS011;73671;43.220;0.064;2023-12-04T13:28:30;0.88;;;0.77;;
83690;SDS011;73671;43.220;0.064;2023-12-04T13:30:55;1.33;;;0.98;;
83690;SDS011;73671;43.220;0.064;2023-12-04T13:33:21;2.40;;;1.33;;
83690;SDS011;73671;43.220;0.064;2023-12-04T13:35:46;1.42;;;0.80;;
83690;SDS011;73671;43.220;0.064;2023-12-04T13:38:12;2.88;;;0.90;;
83690;SDS011;73671;43.220;0.064;2023-12-04T13:40:41;2.08;;;0.70;;
83690;SDS011;73671;43.220;0.064;2023-12-04T13:43:14;0.80;;;0.80;;
83690;SDS011;73671;43.220;0.064;2023-12-04T13:45:58;1.27;;;0.80;;
83690;SDS011;73671;43.220;0.064;2023-12-04T13:48:23;1.67;;;0.80;;
83690;SDS011;73671;43.220;0.064;2023-12-04T13:50:48;0.68;;;0.60;;
83690;SDS011;73671;43.220;0.064;2023-12-04T13:53:15;0.52;;;0.52;;
83690;SDS011;73671;43.220;0.064;2023-12-04T13:55:41;0.88;;;0.88;;
83690;SDS011;73671;43.220;0.064;2023-12-04T13:58:32;0.90;;;0.70;;
83690;SDS011;73671;43.220;0.064;2023-12-04T14:01:07;0.60;;;0.60;;
83690;SDS011;73671;43.220;0.064;2023-12-04T14:03:47;1.33;;;0.80;;
83690;SDS011;73671;43.220;0.064;2023-12-04T14:06:13;1.25;;;0.70;;
83690;SDS011;73671;43.220;0.064;2023-12-04T14:08:40;2.17;;;0.80;;
83690;SDS011;73671;43.220;0.064;2023-12-04T14:11:06;1.60;;;0.80;;
83690;SDS011;73671;43.220;0.064;2023-12-04T14:13:32;2.72;;;0.75;;
83690;SDS011;73671;43.220;0.064;2023-12-04T14:15:57;0.85;;;0.77;;
83690;SDS011;73671;43.220;0.064;2023-12-04T14:18:23;0.50;;;0.50;;
83690;SDS011;73671;43.220;0.064;2023-12-04T14:20:49;1.60;;;0.57;;
83690;SDS011;73671;43.220;0.064;2023-12-04T14:23:14;0.60;;;0.60;;
83690;SDS011;73671;43.220;0.064;2023-12-04T14:25:40;0.50;;;0.50;;
83690;SDS011;73671;43.220;0.064;2023-12-04T14:28:05;1.50;;;0.75;;
83690;SDS011;73671;43.220;0.064;2023-12-04T14:30:31;0.73;;;0.50;;
83690;SDS011;73671;43.220;0.064;2023-12-04T14:32:57;0.80;;;0.60;;
83690;SDS011;73671;43.220;0.064;2023-12-04T14:35:23;1.10;;;0.70;;
83690;SDS011;73671;43.220;0.064;2023-12-04T14:37:48;2.92;;;0.63;;
83690;SDS011;73671;43.220;0.064;2023-12-04T14:40:15;0.63;;;0.63;;
83690;SDS011;73671;43.220;0.064;2023-12-04T14:42:40;2.50;;;0.88;;
83690;SDS011;73671;43.220;0.064;2023-12-04T14:45:06;1.55;;;0.90;;